Forside
METAR-TAF:

METAR-TAF

Lufthavne :

Wittmund, Tyskland

Breddekreds: 53-33N, længdekreds: 007-40E, højde: 8 m

Aktuelle vejr

Denne rapport blev lavet for 1 time og 10 minutter siden, kl. 01:20 UTC
Vind 3 kt fra nordvest
Temperatur 11°C
Fugtighed 87%
Tryk 1014 hPa
Sigt 10 km eller mere
Nogle få skyer i en højde af 2100 ft
Spredte skyer i en højde af 3000 ft

METAR: ETNT 220120Z 31003KT 9999 FEW021 SCT030 11/09 Q1014 BLU+

Tid: 04:30 (02:30 UTC)

Vejrudsigter

Denne rapport blev lavet for 1 time og 30 minutter siden, kl. 01:00 UTC
Foreløbig gælder fra 22 på 02 UTC til 22 på 11 UTC
Vind 10 kt fra nordvest
Sigt: 9000 m
Spredte skyer i en højde af 2000 ft
Brudte skyer i en højde af 3000 ft
Sandsynlighed 30%
fra 22 på 02 UTC til 22 på 08 UTC
Vind 8 kt fra nordnordvest
Sigt: 6000 m
Spredte skyer i en højde af 1200 ft
Brudte skyer i en højde af 2000 ft

TAF: ETNT 220100Z 2202/2211 32010KT 9000 NSW SCT020 BKN030 PROB30 2202/2208 33008KT 6000 NSW SCT012 BKN020 BY ETGL

Vejrobservationer og prognoser fra mere end 4000 lufthavne (METAR og TAF).

De gule og røde prikker repræsenterer de meteorologiske stationer.

Flyt musen over at se navnet på stationen.

Så klik over at se vejr observationer og prognoser.

At skifte det kort: Klik på de grønne knapper med et sort kors for at zoome ind; på den grønne knap med en bindestreg for at zoome ud; eller på de grønne pile for tilstødende kort.


METAR-TAF: